Sagar Sampada — VWXS — position and weather

sailwx.info

Track history (hours):
 
Tides and Currents Weather Stations Pressure Air Temp Water Temp Dewpoint Dewpoint Depression Visibility Wind Speed Wind Dir Waves Ship Positions

Oceanographic research ship Sagar Sampada (India)

Detailed information on ship capabilities available from University of Delaware's Ocean Information Center.

Last reported at 2020-Sep-23 03:10 UTC. Time now 2020-Sep-24 08:20 UTC.
Position N 08°18' E 076°06'.

Type: Other ship. MMSI: 419323000.

Wind from 260 at 10 knots

Barometer 1011.9 mb
Air temperature 28.4 ° C

Date/timePositionNaut miles runAvg speedWind from/ knotsBaromVisibWave heightAir tempDewpointWater temp
2020-Sep-23 03:10N 08°18' E 076°06'8 2.8 260 / 101011.9 28.4
2020-Sep-23 00:10N 08°12' E 076°12'13 4.5 210 / 271013.6 27.4
2020-Sep-22 21:10N 08°24' E 076°06'8 2.8 260 / 161012.3 28.0
2020-Sep-22 18:10N 08°30' E 076°00'18 6.0 250 / 101012.9 28.0
2020-Sep-22 15:10N 08°48' E 076°00'24 8.0 250 / 101012.9 27.3
2020-Sep-22 12:10N 09°12' E 076°00'25 7.1 240 / 81012.4 27.0
2020-Sep-22 08:40N 09°36' E 075°54'19 7.6 220 / 101012.1 27.0
2020-Sep-22 06:10N 09°54' E 076°00'19 6.2 150 / 101012.2 26.4
2020-Sep-22 03:10N 10°00' E 076°18'0 0.0 230 / 21011.8 29.0
2020-Sep-22 00:10N 10°00' E 076°18'0 0.0 220 / 21012.6 25.6
2020-Sep-21 21:10N 10°00' E 076°18'0 0.0 130 / 21012.7 26.1
2020-Sep-21 18:10N 10°00' E 076°18'0 0.0 160 / 21012.9 26.4
2020-Sep-21 15:10N 10°00' E 076°18'0 0.0 200 / 21013.2 26.5
2020-Sep-21 12:10N 10°00' E 076°18'0 0.0 230 / 21012.0 25.6
2020-Sep-21 08:40N 10°00' E 076°18'0 0.0 230 / 41011.0 28.1
2020-Sep-21 06:10N 10°00' E 076°18'0 0.0 220 / 61013.5 26.7
2020-Sep-21 03:10N 10°00' E 076°18'0 0.0 180 / 21012.4 27.3
2020-Sep-21 00:10N 10°00' E 076°18'0 0.0 200 / 21012.3 26.7
2020-Sep-20 21:10N 10°00' E 076°18'0 0.0 210 / 21012.6 26.0
2020-Sep-20 17:40N 10°00' E 076°18'0 0.0 220 / 2 26.2
2020-Sep-20 15:10N 10°00' E 076°18'0 0.0 160 / 2 25.6
2020-Sep-20 12:10N 10°00' E 076°18'0 0.0 210 / 21011.2 29.1
2020-Sep-20 09:10N 10°00' E 076°18'0 0.0 200 / 21011.5 30.7
2020-Sep-20 06:10N 10°00' E 076°18'0 0.0 200 / 21012.1 27.1
2020-Sep-20 03:10N 10°00' E 076°18'0 0.0 230 / 2 24.0
2020-Sep-19 23:40N 10°00' E 076°18'0 0.0 080 / 2 24.8
2020-Sep-19 21:10N 10°00' E 076°18'0 0.0 230 / 2 23.7
2020-Sep-19 18:10N 10°00' E 076°18'0 0.0 250 / 21013.9 26.0
2020-Sep-19 15:10N 10°00' E 076°18'0 0.0 220 / 21013.6 25.1
2020-Sep-19 12:10N 10°00' E 076°18'0 0.0 190 25.2
2020-Sep-19 09:10N 10°00' E 076°18'0 0.0 220 / 2 26.2
2020-Sep-19 05:40N 10°00' E 076°18'0 0.0 220 / 41010.4 26.7
2020-Sep-19 03:10N 10°00' E 076°18'0 0.0 220 / 21014.6 26.5
2020-Sep-19 00:10N 10°00' E 076°18'0 0.0 250 25.2
2020-Sep-18 21:10N 10°00' E 076°18'0 0.0 130 / 21013.7 26.6
2020-Sep-18 18:10N 10°00' E 076°18'0 0.0 150 / 21013.5 27.2
2020-Sep-18 15:10N 10°00' E 076°18'0 0.0 340 1013.6 27.4
2020-Sep-18 12:10N 10°00' E 076°18'0 0.0 200 1012.9 29.6
2020-Sep-18 06:10N 10°00' E 076°18'0 0.0 190 / 21012.7 28.2
2020-Sep-18 02:40N 10°00' E 076°18'0 0.0 340 / 41010.7 25.6
2020-Sep-18 00:10N 10°00' E 076°18'0 0.0 060 / 21013.8 25.1
2020-Sep-17 21:10N 10°00' E 076°18'0 0.0 050 / 41013.7 25.2
2020-Sep-17 18:10N 10°00' E 076°18'0 0.0 180 1013.8 25.6
2020-Sep-17 15:10N 10°00' E 076°18'0 0.0 100 / 21013.6 26.9
2020-Sep-17 11:40N 10°00' E 076°18'0 0.0 220 / 21012.6 27.9
2020-Sep-17 09:10N 10°00' E 076°18'0 0.0 210 / 21014.4 26.4
2020-Sep-17 06:10N 10°00' E 076°18'0 0.0 220 / 21011.6 29.9
2020-Sep-17 03:10N 10°00' E 076°18'0 0.0 210 / 21011.7 25.6
2020-Sep-17 00:10N 10°00' E 076°18'0 0.0 050 / 41013.5 25.5
2020-Sep-16 21:10N 10°00' E 076°18'0 0.0 130 / 21013.5 25.3
2020-Sep-16 18:10N 10°00' E 076°18'0 0.0 140 / 21013.9 25.4
2020-Sep-16 15:10N 10°00' E 076°18'0 0.0 050 / 21014.2 25.8
2020-Sep-16 12:10N 10°00' E 076°18'0 0.0 300 / 21012.6 24.5
2020-Sep-16 06:10N 10°00' E 076°18'0 0.0 250 / 21011.1 30.3
2020-Sep-16 03:10N 10°00' E 076°18'0 0.0 080 / 21012.8 28.2
2020-Sep-16 00:10N 10°00' E 076°18'0 0.0 180 25.5
2020-Sep-15 21:10N 10°00' E 076°18'0 0.0 210 1013.3 27.2
2020-Sep-15 18:10N 10°00' E 076°18'0 0.0 310 1013.1 27.5
2020-Sep-15 15:10N 10°00' E 076°18'0 0.0 170 1013.7 27.1
2020-Sep-15 09:10N 10°00' E 076°18'0 0.0 200 / 21010.4 30.3
2020-Sep-15 06:10N 10°00' E 076°18'0 0.0 200 1011.4 31.7
2020-Sep-15 03:10N 10°00' E 076°18'0 0.0 200 1011.2 29.4
2020-Sep-15 00:10N 10°00' E 076°18'0 0.0 150 1010.4 25.5
2020-Sep-14 21:10N 10°00' E 076°18'0 0.0 140 / 21012.1 26.1
2020-Sep-14 18:10N 10°00' E 076°18'0 0.0 130 / 21012.1 26.4
2020-Sep-14 15:10N 10°00' E 076°18'0 0.0 160 / 21011.6 27.2
2020-Sep-14 12:10N 10°00' E 076°18'0 0.0 210 / 21011.6 28.0
2020-Sep-14 09:10N 10°00' E 076°18'0 0.0 220 / 21011.7 31.1
2020-Sep-14 03:10N 10°00' E 076°18'0 0.0 080 / 41011.5 26.1
2020-Sep-14 00:10N 10°00' E 076°18'0 0.0 320 / 2 24.7
2020-Sep-13 21:10N 10°00' E 076°18'0 0.0 040 / 21011.1 25.6
2020-Sep-13 18:10N 10°00' E 076°18'0 0.0 160 / 21011.2 25.7
2020-Sep-13 15:10N 10°00' E 076°18'0 0.0 040 / 41011.4 25.9
2020-Sep-13 09:10N 10°00' E 076°18'0 0.0 330 / 61011.3 26.2
2020-Sep-13 03:10N 10°00' E 076°18'   110 / 2 25.0
Track history (hours):
 
Tides and Currents Weather Stations Pressure Air Temp Water Temp Dewpoint Dewpoint Depression Visibility Wind Speed Wind Dir Waves Ship Positions

Oceanographic research ship Sagar Sampada (India)

Detailed information on ship capabilities available from University of Delaware's Ocean Information Center.

Last reported at 2020-Sep-23 03:10 UTC. Time now 2020-Sep-24 08:20 UTC.
Position N 08°18' E 076°06'.

Type: Other ship. MMSI: 419323000.

Wind from 260 at 10 knots

Barometer 1011.9 mb
Air temperature 28.4 ° C

Date/timePositionNaut miles runAvg speedWind from/ knotsBaromVisibWave heightAir tempDewpointWater temp
2020-Sep-23 03:10N 08°18' E 076°06'8 2.8 260 / 101011.9 28.4
2020-Sep-23 00:10N 08°12' E 076°12'13 4.5 210 / 271013.6 27.4
2020-Sep-22 21:10N 08°24' E 076°06'8 2.8 260 / 161012.3 28.0
2020-Sep-22 18:10N 08°30' E 076°00'18 6.0 250 / 101012.9 28.0
2020-Sep-22 15:10N 08°48' E 076°00'24 8.0 250 / 101012.9 27.3
2020-Sep-22 12:10N 09°12' E 076°00'25 7.1 240 / 81012.4 27.0
2020-Sep-22 08:40N 09°36' E 075°54'19 7.6 220 / 101012.1 27.0
2020-Sep-22 06:10N 09°54' E 076°00'19 6.2 150 / 101012.2 26.4
2020-Sep-22 03:10N 10°00' E 076°18'0 0.0 230 / 21011.8 29.0
2020-Sep-22 00:10N 10°00' E 076°18'0 0.0 220 / 21012.6 25.6
2020-Sep-21 21:10N 10°00' E 076°18'0 0.0 130 / 21012.7 26.1
2020-Sep-21 18:10N 10°00' E 076°18'0 0.0 160 / 21012.9 26.4
2020-Sep-21 15:10N 10°00' E 076°18'0 0.0 200 / 21013.2 26.5
2020-Sep-21 12:10N 10°00' E 076°18'0 0.0 230 / 21012.0 25.6
2020-Sep-21 08:40N 10°00' E 076°18'0 0.0 230 / 41011.0 28.1
2020-Sep-21 06:10N 10°00' E 076°18'0 0.0 220 / 61013.5 26.7
2020-Sep-21 03:10N 10°00' E 076°18'0 0.0 180 / 21012.4 27.3
2020-Sep-21 00:10N 10°00' E 076°18'0 0.0 200 / 21012.3 26.7
2020-Sep-20 21:10N 10°00' E 076°18'0 0.0 210 / 21012.6 26.0
2020-Sep-20 17:40N 10°00' E 076°18'0 0.0 220 / 2 26.2
2020-Sep-20 15:10N 10°00' E 076°18'0 0.0 160 / 2 25.6
2020-Sep-20 12:10N 10°00' E 076°18'0 0.0 210 / 21011.2 29.1
2020-Sep-20 09:10N 10°00' E 076°18'0 0.0 200 / 21011.5 30.7
2020-Sep-20 06:10N 10°00' E 076°18'0 0.0 200 / 21012.1 27.1
2020-Sep-20 03:10N 10°00' E 076°18'0 0.0 230 / 2 24.0
2020-Sep-19 23:40N 10°00' E 076°18'0 0.0 080 / 2 24.8
2020-Sep-19 21:10N 10°00' E 076°18'0 0.0 230 / 2 23.7
2020-Sep-19 18:10N 10°00' E 076°18'0 0.0 250 / 21013.9 26.0
2020-Sep-19 15:10N 10°00' E 076°18'0 0.0 220 / 21013.6 25.1
2020-Sep-19 12:10N 10°00' E 076°18'0 0.0 190 25.2
2020-Sep-19 09:10N 10°00' E 076°18'0 0.0 220 / 2 26.2
2020-Sep-19 05:40N 10°00' E 076°18'0 0.0 220 / 41010.4 26.7
2020-Sep-19 03:10N 10°00' E 076°18'0 0.0 220 / 21014.6 26.5
2020-Sep-19 00:10N 10°00' E 076°18'0 0.0 250 25.2
2020-Sep-18 21:10N 10°00' E 076°18'0 0.0 130 / 21013.7 26.6
2020-Sep-18 18:10N 10°00' E 076°18'0 0.0 150 / 21013.5 27.2
2020-Sep-18 15:10N 10°00' E 076°18'0 0.0 340 1013.6 27.4
2020-Sep-18 12:10N 10°00' E 076°18'0 0.0 200 1012.9 29.6
2020-Sep-18 06:10N 10°00' E 076°18'0 0.0 190 / 21012.7 28.2
2020-Sep-18 02:40N 10°00' E 076°18'0 0.0 340 / 41010.7 25.6
2020-Sep-18 00:10N 10°00' E 076°18'0 0.0 060 / 21013.8 25.1
2020-Sep-17 21:10N 10°00' E 076°18'0 0.0 050 / 41013.7 25.2
2020-Sep-17 18:10N 10°00' E 076°18'0 0.0 180 1013.8 25.6
2020-Sep-17 15:10N 10°00' E 076°18'0 0.0 100 / 21013.6 26.9
2020-Sep-17 11:40N 10°00' E 076°18'0 0.0 220 / 21012.6 27.9
2020-Sep-17 09:10N 10°00' E 076°18'0 0.0 210 / 21014.4 26.4
2020-Sep-17 06:10N 10°00' E 076°18'0 0.0 220 / 21011.6 29.9
2020-Sep-17 03:10N 10°00' E 076°18'0 0.0 210 / 21011.7 25.6
2020-Sep-17 00:10N 10°00' E 076°18'0 0.0 050 / 41013.5 25.5
2020-Sep-16 21:10N 10°00' E 076°18'0 0.0 130 / 21013.5 25.3
2020-Sep-16 18:10N 10°00' E 076°18'0 0.0 140 / 21013.9 25.4
2020-Sep-16 15:10N 10°00' E 076°18'0 0.0 050 / 21014.2 25.8
2020-Sep-16 12:10N 10°00' E 076°18'0 0.0 300 / 21012.6 24.5
2020-Sep-16 06:10N 10°00' E 076°18'0 0.0 250 / 21011.1 30.3
2020-Sep-16 03:10N 10°00' E 076°18'0 0.0 080 / 21012.8 28.2
2020-Sep-16 00:10N 10°00' E 076°18'0 0.0 180 25.5
2020-Sep-15 21:10N 10°00' E 076°18'0 0.0 210 1013.3 27.2
2020-Sep-15 18:10N 10°00' E 076°18'0 0.0 310 1013.1 27.5
2020-Sep-15 15:10N 10°00' E 076°18'0 0.0 170 1013.7 27.1
2020-Sep-15 09:10N 10°00' E 076°18'0 0.0 200 / 21010.4 30.3
2020-Sep-15 06:10N 10°00' E 076°18'0 0.0 200 1011.4 31.7
2020-Sep-15 03:10N 10°00' E 076°18'0 0.0 200 1011.2 29.4
2020-Sep-15 00:10N 10°00' E 076°18'0 0.0 150 1010.4 25.5
2020-Sep-14 21:10N 10°00' E 076°18'0 0.0 140 / 21012.1 26.1
2020-Sep-14 18:10N 10°00' E 076°18'0 0.0 130 / 21012.1 26.4
2020-Sep-14 15:10N 10°00' E 076°18'0 0.0 160 / 21011.6 27.2
2020-Sep-14 12:10N 10°00' E 076°18'0 0.0 210 / 21011.6 28.0
2020-Sep-14 09:10N 10°00' E 076°18'0 0.0 220 / 21011.7 31.1
2020-Sep-14 03:10N 10°00' E 076°18'0 0.0 080 / 41011.5 26.1
2020-Sep-14 00:10N 10°00' E 076°18'0 0.0 320 / 2 24.7
2020-Sep-13 21:10N 10°00' E 076°18'0 0.0 040 / 21011.1 25.6
2020-Sep-13 18:10N 10°00' E 076°18'0 0.0 160 / 21011.2 25.7
2020-Sep-13 15:10N 10°00' E 076°18'0 0.0 040 / 41011.4 25.9
2020-Sep-13 09:10N 10°00' E 076°18'0 0.0 330 / 61011.3 26.2
2020-Sep-13 03:10N 10°00' E 076°18'   110 / 2 25.0

Dump ship's entire track history